sensor_id;sensor_type;location;lat;lon;timestamp;pressure;altitude;pressure_sealevel;temperature;humidity
6680;BME280;3376;42.664;23.346;2023-04-23T00:01:22;94490.88;;;9.58;100.00
6680;BME280;3376;42.664;23.346;2023-04-23T00:03:54;94502.81;;;9.59;100.00
6680;BME280;3376;42.664;23.346;2023-04-23T00:06:22;94494.41;;;9.57;100.00
6680;BME280;3376;42.664;23.346;2023-04-23T00:08:53;94494.41;;;9.57;100.00
6680;BME280;3376;42.664;23.346;2023-04-23T00:11:21;94500.81;;;9.38;100.00
6680;BME280;3376;42.664;23.346;2023-04-23T00:13:48;94484.19;;;9.33;100.00
6680;BME280;3376;42.664;23.346;2023-04-23T00:16:15;94489.81;;;9.36;100.00
6680;BME280;3376;42.664;23.346;2023-04-23T00:18:42;94487.13;;;9.30;100.00
6680;BME280;3376;42.664;23.346;2023-04-23T00:21:09;94499.53;;;9.34;100.00
6680;BME280;3376;42.664;23.346;2023-04-23T00:23:35;94505.97;;;9.38;100.00
6680;BME280;3376;42.664;23.346;2023-04-23T00:26:05;94510.34;;;9.38;100.00
6680;BME280;3376;42.664;23.346;2023-04-23T00:28:31;94503.91;;;9.34;100.00
6680;BME280;3376;42.664;23.346;2023-04-23T00:30:58;94499.22;;;9.37;100.00
6680;BME280;3376;42.664;23.346;2023-04-23T00:33:25;94496.78;;;9.36;100.00
6680;BME280;3376;42.664;23.346;2023-04-23T00:35:52;94467.56;;;9.27;100.00
6680;BME280;3376;42.664;23.346;2023-04-23T00:38:18;94481.88;;;9.46;100.00
6680;BME280;3376;42.664;23.346;2023-04-23T00:40:46;94481.38;;;9.50;100.00
6680;BME280;3376;42.664;23.346;2023-04-23T00:43:14;94493.44;;;9.58;100.00
6680;BME280;3376;42.664;23.346;2023-04-23T00:45:42;94473.78;;;9.49;100.00
6680;BME280;3376;42.664;23.346;2023-04-23T00:48:10;94491.81;;;9.57;100.00
6680;BME280;3376;42.664;23.346;2023-04-23T00:50:37;94487.06;;;9.46;100.00
6680;BME280;3376;42.664;23.346;2023-04-23T00:53:04;94498.06;;;9.40;100.00
6680;BME280;3376;42.664;23.346;2023-04-23T00:55:32;94494.81;;;9.38;100.00
6680;BME280;3376;42.664;23.346;2023-04-23T00:57:59;94492.75;;;9.33;100.00
6680;BME280;3376;42.664;23.346;2023-04-23T01:00:28;94486.19;;;9.23;100.00
6680;BME280;3376;42.664;23.346;2023-04-23T01:02:55;94494.22;;;9.28;100.00
6680;BME280;3376;42.664;23.346;2023-04-23T01:05:23;94497.47;;;9.30;100.00
6680;BME280;3376;42.664;23.346;2023-04-23T01:07:51;94494.91;;;9.22;100.00
6680;BME280;3376;42.664;23.346;2023-04-23T01:10:18;94482.56;;;9.01;100.00
6680;BME280;3376;42.664;23.346;2023-04-23T01:12:45;94493.03;;;9.08;100.00
6680;BME280;3376;42.664;23.346;2023-04-23T01:15:14;94499.50;;;9.04;100.00
6680;BME280;3376;42.664;23.346;2023-04-23T01:17:42;94467.56;;;8.89;100.00
6680;BME280;3376;42.664;23.346;2023-04-23T01:20:10;94487.56;;;9.03;100.00
6680;BME280;3376;42.664;23.346;2023-04-23T01:22:38;94491.75;;;9.04;100.00
6680;BME280;3376;42.664;23.346;2023-04-23T01:25:06;94490.91;;;9.03;100.00
6680;BME280;3376;42.664;23.346;2023-04-23T01:27:34;94490.78;;;9.05;100.00
6680;BME280;3376;42.664;23.346;2023-04-23T01:30:02;94483.69;;;8.99;100.00
6680;BME280;3376;42.664;23.346;2023-04-23T01:32:29;94483.25;;;8.87;100.00
6680;BME280;3376;42.664;23.346;2023-04-23T01:34:56;94494.69;;;8.93;100.00
6680;BME280;3376;42.664;23.346;2023-04-23T01:37:24;94501.34;;;8.79;100.00
6680;BME280;3376;42.664;23.346;2023-04-23T01:39:53;94504.03;;;8.94;100.00
6680;BME280;3376;42.664;23.346;2023-04-23T01:42:20;94497.09;;;8.94;100.00
6680;BME280;3376;42.664;23.346;2023-04-23T01:44:47;94495.66;;;8.92;100.00
6680;BME280;3376;42.664;23.346;2023-04-23T01:47:14;94502.44;;;8.85;100.00
6680;BME280;3376;42.664;23.346;2023-04-23T01:49:41;94502.59;;;8.91;100.00
6680;BME280;3376;42.664;23.346;2023-04-23T01:52:08;94493.13;;;8.76;100.00
6680;BME280;3376;42.664;23.346;2023-04-23T01:54:35;94485.38;;;8.68;100.00
6680;BME280;3376;42.664;23.346;2023-04-23T01:57:03;94491.03;;;8.71;100.00
6680;BME280;3376;42.664;23.346;2023-04-23T01:59:30;94504.25;;;8.76;100.00
6680;BME280;3376;42.664;23.346;2023-04-23T02:01:57;94468.63;;;8.56;100.00
6680;BME280;3376;42.664;23.346;2023-04-23T02:04:24;94410.09;;;8.16;100.00
6680;BME280;3376;42.664;23.346;2023-04-23T02:06:51;94508.63;;;8.76;100.00
6680;BME280;3376;42.664;23.346;2023-04-23T02:09:18;94508.63;;;8.76;100.00
6680;BME280;3376;42.664;23.346;2023-04-23T02:11:45;94510.22;;;8.77;100.00
6680;BME280;3376;42.664;23.346;2023-04-23T02:14:14;94509.25;;;8.70;100.00
6680;BME280;3376;42.664;23.346;2023-04-23T02:16:41;94506.38;;;8.65;100.00
6680;BME280;3376;42.664;23.346;2023-04-23T02:19:09;94514.94;;;8.65;100.00
6680;BME280;3376;42.664;23.346;2023-04-23T02:21:36;94510.88;;;8.63;100.00
6680;BME280;3376;42.664;23.346;2023-04-23T02:24:03;94513.47;;;8.63;100.00
6680;BME280;3376;42.664;23.346;2023-04-23T02:26:31;94514.44;;;8.54;100.00
6680;BME280;3376;42.664;23.346;2023-04-23T02:28:58;94511.22;;;8.44;100.00
6680;BME280;3376;42.664;23.346;2023-04-23T02:31:26;94508.50;;;8.37;100.00
6680;BME280;3376;42.664;23.346;2023-04-23T02:33:53;94511.41;;;8.26;100.00
6680;BME280;3376;42.664;23.346;2023-04-23T02:36:19;94508.78;;;8.10;100.00
6680;BME280;3376;42.664;23.346;2023-04-23T02:38:46;94492.19;;;7.96;100.00
6680;BME280;3376;42.664;23.346;2023-04-23T02:41:15;94509.78;;;8.17;100.00
6680;BME280;3376;42.664;23.346;2023-04-23T02:43:42;94510.56;;;8.09;100.00
6680;BME280;3376;42.664;23.346;2023-04-23T02:46:08;94506.06;;;8.03;100.00
6680;BME280;3376;42.664;23.346;2023-04-23T02:48:39;94507.00;;;8.02;100.00
6680;BME280;3376;42.664;23.346;2023-04-23T02:51:08;94509.91;;;7.99;100.00
6680;BME280;3376;42.664;23.346;2023-04-23T02:53:35;94514.75;;;7.94;100.00
6680;BME280;3376;42.664;23.346;2023-04-23T02:56:02;94342.41;;;6.85;100.00
6680;BME280;3376;42.664;23.346;2023-04-23T02:58:29;94354.84;;;7.06;100.00
6680;BME280;3376;42.664;23.346;2023-04-23T03:00:56;94495.56;;;7.89;100.00
6680;BME280;3376;42.664;23.346;2023-04-23T03:03:23;94502.50;;;7.96;100.00
6680;BME280;3376;42.664;23.346;2023-04-23T03:05:52;94495.22;;;7.84;100.00
6680;BME280;3376;42.664;23.346;2023-04-23T03:08:19;94517.03;;;8.05;100.00
6680;BME280;3376;42.664;23.346;2023-04-23T03:10:47;94506.69;;;7.97;100.00
6680;BME280;3376;42.664;23.346;2023-04-23T03:13:14;94508.78;;;7.94;100.00
6680;BME280;3376;42.664;23.346;2023-04-23T03:15:40;94519.25;;;7.92;100.00
6680;BME280;3376;42.664;23.346;2023-04-23T03:18:07;94519.91;;;7.86;100.00
6680;BME280;3376;42.664;23.346;2023-04-23T03:20:35;94517.31;;;7.86;100.00
6680;BME280;3376;42.664;23.346;2023-04-23T03:23:03;94529.06;;;7.89;100.00
6680;BME280;3376;42.664;23.346;2023-04-23T03:25:31;94523.59;;;7.92;100.00
6680;BME280;3376;42.664;23.346;2023-04-23T03:27:57;94519.09;;;7.86;100.00
6680;BME280;3376;42.664;23.346;2023-04-23T03:30:24;94472.47;;;7.63;100.00
6680;BME280;3376;42.664;23.346;2023-04-23T03:32:52;94501.03;;;7.86;100.00
6680;BME280;3376;42.664;23.346;2023-04-23T03:35:19;94528.94;;;7.98;100.00
6680;BME280;3376;42.664;23.346;2023-04-23T03:37:45;94533.28;;;7.98;100.00
6680;BME280;3376;42.664;23.346;2023-04-23T03:40:14;94518.44;;;7.92;100.00
6680;BME280;3376;42.664;23.346;2023-04-23T03:42:40;94532.81;;;8.02;100.00
6680;BME280;3376;42.664;23.346;2023-04-23T03:45:08;94521.69;;;8.02;100.00
6680;BME280;3376;42.664;23.346;2023-04-23T03:47:35;94535.41;;;8.18;100.00
6680;BME280;3376;42.664;23.346;2023-04-23T03:50:02;94534.09;;;8.14;100.00
6680;BME280;3376;42.664;23.346;2023-04-23T03:52:29;94536.53;;;8.08;100.00
6680;BME280;3376;42.664;23.346;2023-04-23T03:54:56;94524.72;;;7.89;100.00
6680;BME280;3376;42.664;23.346;2023-04-23T03:57:24;94529.91;;;7.89;100.00
6680;BME280;3376;42.664;23.346;2023-04-23T03:59:51;94540.88;;;7.99;100.00
6680;BME280;3376;42.664;23.346;2023-04-23T04:02:18;94540.88;;;8.07;100.00
6680;BME280;3376;42.664;23.346;2023-04-23T04:04:45;94558.00;;;8.24;100.00
6680;BME280;3376;42.664;23.346;2023-04-23T04:07:14;94542.88;;;8.29;100.00
6680;BME280;3376;42.664;23.346;2023-04-23T04:09:41;94537.06;;;8.36;100.00
6680;BME280;3376;42.664;23.346;2023-04-23T04:12:07;94551.22;;;8.56;100.00
6680;BME280;3376;42.664;23.346;2023-04-23T04:14:36;94510.13;;;8.38;100.00
6680;BME280;3376;42.664;23.346;2023-04-23T04:17:03;94550.28;;;8.57;100.00
6680;BME280;3376;42.664;23.346;2023-04-23T04:19:29;94555.59;;;8.71;100.00
6680;BME280;3376;42.664;23.346;2023-04-23T04:21:57;94551.22;;;8.80;100.00
6680;BME280;3376;42.664;23.346;2023-04-23T04:24:24;94558.28;;;8.94;100.00
6680;BME280;3376;42.664;23.346;2023-04-23T04:26:51;94554.06;;;9.09;100.00
6680;BME280;3376;42.664;23.346;2023-04-23T04:29:18;94531.31;;;9.04;100.00
6680;BME280;3376;42.664;23.346;2023-04-23T04:31:47;94566.13;;;9.24;100.00
6680;BME280;3376;42.664;23.346;2023-04-23T04:34:14;94564.03;;;9.28;100.00
6680;BME280;3376;42.664;23.346;2023-04-23T04:36:42;94569.00;;;9.37;100.00
6680;BME280;3376;42.664;23.346;2023-04-23T04:39:09;94568.81;;;9.47;100.00
6680;BME280;3376;42.664;23.346;2023-04-23T04:41:38;94552.31;;;9.48;100.00
6680;BME280;3376;42.664;23.346;2023-04-23T04:44:05;94569.66;;;9.70;100.00
6680;BME280;3376;42.664;23.346;2023-04-23T04:46:32;94576.47;;;9.71;100.00
6680;BME280;3376;42.664;23.346;2023-04-23T04:49:07;94572.75;;;9.66;100.00
6680;BME280;3376;42.664;23.346;2023-04-23T04:51:35;94564.03;;;9.28;100.00
6680;BME280;3376;42.664;23.346;2023-04-23T04:54:02;94567.91;;;9.32;100.00
6680;BME280;3376;42.664;23.346;2023-04-23T04:56:29;94571.88;;;9.50;100.00
6680;BME280;3376;42.664;23.346;2023-04-23T04:58:56;94570.41;;;9.56;100.00
6680;BME280;3376;42.664;23.346;2023-04-23T05:01:23;94578.06;;;9.72;100.00
6680;BME280;3376;42.664;23.346;2023-04-23T05:03:51;94567.19;;;9.85;100.00
6680;BME280;3376;42.664;23.346;2023-04-23T05:06:19;94573.34;;;10.06;100.00
6680;BME280;3376;42.664;23.346;2023-04-23T05:08:46;94579.16;;;10.39;100.00
6680;BME280;3376;42.664;23.346;2023-04-23T05:11:13;94583.69;;;10.59;100.00
6680;BME280;3376;42.664;23.346;2023-04-23T05:13:40;94580.63;;;10.79;99.58
6680;BME280;3376;42.664;23.346;2023-04-23T05:16:07;94582.53;;;10.99;97.20
6680;BME280;3376;42.664;23.346;2023-04-23T05:18:34;94579.19;;;11.13;96.33
6680;BME280;3376;42.664;23.346;2023-04-23T05:21:00;94575.63;;;11.29;94.92
6680;BME280;3376;42.664;23.346;2023-04-23T05:23:29;94579.81;;;11.44;93.61
6680;BME280;3376;42.664;23.346;2023-04-23T05:25:56;94581.72;;;11.65;92.46
6680;BME280;3376;42.664;23.346;2023-04-23T05:28:23;94520.72;;;11.25;90.58
6680;BME280;3376;42.664;23.346;2023-04-23T05:30:50;94555.84;;;11.57;90.12
6680;BME280;3376;42.664;23.346;2023-04-23T05:33:17;94507.72;;;11.11;91.56
6680;BME280;3376;42.664;23.346;2023-04-23T05:35:44;94579.81;;;11.59;92.30
6680;BME280;3376;42.664;23.346;2023-04-23T05:38:11;94487.63;;;10.98;93.75
6680;BME280;3376;42.664;23.346;2023-04-23T05:40:39;94585.13;;;11.65;92.83
6680;BME280;3376;42.664;23.346;2023-04-23T05:43:06;94586.09;;;11.79;91.81
6680;BME280;3376;42.664;23.346;2023-04-23T05:45:33;94582.16;;;11.68;95.63
6680;BME280;3376;42.664;23.346;2023-04-23T05:47:59;94584.03;;;11.74;93.62
6680;BME280;3376;42.664;23.346;2023-04-23T05:50:26;94591.63;;;11.91;91.37
6680;BME280;3376;42.664;23.346;2023-04-23T05:52:53;94569.78;;;11.85;89.93
6680;BME280;3376;42.664;23.346;2023-04-23T05:55:20;94590.06;;;12.11;89.52
6680;BME280;3376;42.664;23.346;2023-04-23T05:57:49;94578.38;;;12.21;87.68
6680;BME280;3376;42.664;23.346;2023-04-23T06:00:16;94566.94;;;12.16;87.21
6680;BME280;3376;42.664;23.346;2023-04-23T06:02:43;94578.00;;;12.24;89.10
6680;BME280;3376;42.664;23.346;2023-04-23T06:05:10;94530.22;;;11.98;88.48
6680;BME280;3376;42.664;23.346;2023-04-23T06:07:37;94596.91;;;12.54;87.50
6680;BME280;3376;42.664;23.346;2023-04-23T06:10:06;94600.56;;;12.59;85.98
6680;BME280;3376;42.664;23.346;2023-04-23T06:12:33;94596.53;;;12.78;85.08
6680;BME280;3376;42.664;23.346;2023-04-23T06:15:05;94598.19;;;13.07;84.32
6680;BME280;3376;42.664;23.346;2023-04-23T06:17:33;94597.06;;;13.16;84.68
6680;BME280;3376;42.664;23.346;2023-04-23T06:19:59;94589.53;;;13.27;83.60
6680;BME280;3376;42.664;23.346;2023-04-23T06:22:26;94601.53;;;13.56;81.20
6680;BME280;3376;42.664;23.346;2023-04-23T06:24:53;94597.09;;;13.84;79.67
6680;BME280;3376;42.664;23.346;2023-04-23T06:27:20;94583.53;;;13.95;79.02
6680;BME280;3376;42.664;23.346;2023-04-23T06:29:47;94592.81;;;14.17;77.29
6680;BME280;3376;42.664;23.346;2023-04-23T06:32:15;94601.47;;;14.24;78.02
6680;BME280;3376;42.664;23.346;2023-04-23T06:34:41;94591.75;;;13.98;79.72
6680;BME280;3376;42.664;23.346;2023-04-23T06:37:08;94598.44;;;14.14;76.70
6680;BME280;3376;42.664;23.346;2023-04-23T06:39:35;94594.72;;;13.95;79.74
6680;BME280;3376;42.664;23.346;2023-04-23T06:42:02;94604.81;;;14.11;77.88
6680;BME280;3376;42.664;23.346;2023-04-23T06:44:29;94600.03;;;14.22;80.39
6680;BME280;3376;42.664;23.346;2023-04-23T06:46:55;94571.38;;;14.15;79.76
6680;BME280;3376;42.664;23.346;2023-04-23T06:49:24;94594.94;;;14.48;78.83
6680;BME280;3376;42.664;23.346;2023-04-23T06:51:50;94589.75;;;14.67;77.69
6680;BME280;3376;42.664;23.346;2023-04-23T06:54:17;94596.81;;;14.86;76.45
6680;BME280;3376;42.664;23.346;2023-04-23T06:56:44;94478.25;;;14.43;76.06
6680;BME280;3376;42.664;23.346;2023-04-23T06:59:11;94585.78;;;15.23;75.47
6680;BME280;3376;42.664;23.346;2023-04-23T07:01:38;94587.78;;;15.54;73.61
6680;BME280;3376;42.664;23.346;2023-04-23T07:04:04;94601.03;;;15.59;72.04
6680;BME280;3376;42.664;23.346;2023-04-23T07:06:32;94596.72;;;15.91;70.69
6680;BME280;3376;42.664;23.346;2023-04-23T07:09:00;94593.19;;;16.23;68.94
6680;BME280;3376;42.664;23.346;2023-04-23T07:11:26;94597.88;;;16.45;67.37
6680;BME280;3376;42.664;23.346;2023-04-23T07:13:55;94595.94;;;16.34;68.41
6680;BME280;3376;42.664;23.346;2023-04-23T07:16:22;94593.06;;;16.49;68.21
6680;BME280;3376;42.664;23.346;2023-04-23T07:18:50;94595.81;;;16.67;66.86
6680;BME280;3376;42.664;23.346;2023-04-23T07:21:17;94598.91;;;16.82;68.28
6680;BME280;3376;42.664;23.346;2023-04-23T07:23:45;94598.41;;;16.98;65.63
6680;BME280;3376;42.664;23.346;2023-04-23T07:26:12;94602.72;;;17.17;63.18
6680;BME280;3376;42.664;23.346;2023-04-23T07:28:40;94596.38;;;17.25;62.60
6680;BME280;3376;42.664;23.346;2023-04-23T07:31:07;94594.69;;;17.62;61.85
6680;BME280;3376;42.664;23.346;2023-04-23T07:33:34;94585.50;;;17.71;61.80
6680;BME280;3376;42.664;23.346;2023-04-23T07:36:01;94581.03;;;17.96;59.81
6680;BME280;3376;42.664;23.346;2023-04-23T07:38:28;94573.44;;;18.06;58.98
6680;BME280;3376;42.664;23.346;2023-04-23T07:40:56;94581.28;;;18.24;57.17
6680;BME280;3376;42.664;23.346;2023-04-23T07:43:23;94585.63;;;18.48;56.73
6680;BME280;3376;42.664;23.346;2023-04-23T07:45:50;94584.84;;;18.47;57.53
6680;BME280;3376;42.664;23.346;2023-04-23T07:48:16;94591.50;;;18.61;57.56
6680;BME280;3376;42.664;23.346;2023-04-23T07:50:43;94577.03;;;18.59;57.27
6680;BME280;3376;42.664;23.346;2023-04-23T07:53:10;94591.47;;;18.32;57.40
6680;BME280;3376;42.664;23.346;2023-04-23T07:55:37;94590.59;;;18.38;57.63
6680;BME280;3376;42.664;23.346;2023-04-23T07:58:05;94584.13;;;18.70;57.33
6680;BME280;3376;42.664;23.346;2023-04-23T08:00:32;94493.06;;;18.59;55.84
6680;BME280;3376;42.664;23.346;2023-04-23T08:02:59;94572.91;;;19.45;53.66
6680;BME280;3376;42.664;23.346;2023-04-23T08:05:26;94584.72;;;19.94;52.08
6680;BME280;3376;42.664;23.346;2023-04-23T08:07:52;94583.25;;;19.98;51.47
6680;BME280;3376;42.664;23.346;2023-04-23T08:10:19;94555.41;;;19.62;51.31
6680;BME280;3376;42.664;23.346;2023-04-23T08:12:46;94584.28;;;19.51;52.78
6680;BME280;3376;42.664;23.346;2023-04-23T08:15:15;94579.16;;;19.33;53.96
6680;BME280;3376;42.664;23.346;2023-04-23T08:17:41;94578.59;;;19.42;54.79
6680;BME280;3376;42.664;23.346;2023-04-23T08:20:09;94574.38;;;19.30;54.20
6680;BME280;3376;42.664;23.346;2023-04-23T08:22:36;94569.13;;;19.41;58.24
6680;BME280;3376;42.664;23.346;2023-04-23T08:25:03;94579.97;;;19.56;53.94
6680;BME280;3376;42.664;23.346;2023-04-23T08:27:30;94566.78;;;19.91;50.49
6680;BME280;3376;42.664;23.346;2023-04-23T08:29:57;94578.25;;;19.50;50.60
6680;BME280;3376;42.664;23.346;2023-04-23T08:32:25;94570.25;;;19.57;52.92
6680;BME280;3376;42.664;23.346;2023-04-23T08:34:52;94561.88;;;19.25;52.94
6680;BME280;3376;42.664;23.346;2023-04-23T08:37:19;94536.03;;;18.99;54.23
6680;BME280;3376;42.664;23.346;2023-04-23T08:39:45;94564.06;;;19.28;53.54
6680;BME280;3376;42.664;23.346;2023-04-23T08:42:22;94452.91;;;18.70;54.36
6680;BME280;3376;42.664;23.346;2023-04-23T08:44:50;94561.91;;;19.60;54.29
6680;BME280;3376;42.664;23.346;2023-04-23T08:47:23;94552.41;;;19.70;53.47
6680;BME280;3376;42.664;23.346;2023-04-23T08:49:53;94532.41;;;19.81;50.83
6680;BME280;3376;42.664;23.346;2023-04-23T08:52:22;94532.97;;;19.71;50.24
6680;BME280;3376;42.664;23.346;2023-04-23T08:54:52;94548.94;;;20.05;49.85
6680;BME280;3376;42.664;23.346;2023-04-23T08:57:19;94552.47;;;20.10;52.14
6680;BME280;3376;42.664;23.346;2023-04-23T08:59:46;94549.84;;;20.50;49.76
6680;BME280;3376;42.664;23.346;2023-04-23T09:02:15;94532.78;;;20.52;48.14
6680;BME280;3376;42.664;23.346;2023-04-23T09:04:44;94548.63;;;20.41;47.58
6680;BME280;3376;42.664;23.346;2023-04-23T09:07:13;94520.69;;;20.00;48.91
6680;BME280;3376;42.664;23.346;2023-04-23T09:09:40;94549.31;;;19.73;49.15
6680;BME280;3376;42.664;23.346;2023-04-23T09:12:07;94543.84;;;19.63;50.91
6680;BME280;3376;42.664;23.346;2023-04-23T09:14:35;94530.41;;;20.00;50.07
6680;BME280;3376;42.664;23.346;2023-04-23T09:17:02;94532.88;;;20.29;48.80
6680;BME280;3376;42.664;23.346;2023-04-23T09:19:29;94524.47;;;20.44;47.78
6680;BME280;3376;42.664;23.346;2023-04-23T09:21:57;94534.50;;;20.91;45.53
6680;BME280;3376;42.664;23.346;2023-04-23T09:24:26;94542.94;;;21.38;44.21
6680;BME280;3376;42.664;23.346;2023-04-23T09:26:56;94477.53;;;21.35;44.79
6680;BME280;3376;42.664;23.346;2023-04-23T09:29:23;94543.63;;;22.05;44.94
6680;BME280;3376;42.664;23.346;2023-04-23T09:31:51;94544.78;;;22.57;45.31
6680;BME280;3376;42.664;23.346;2023-04-23T09:34:20;94515.28;;;22.65;43.73
6680;BME280;3376;42.664;23.346;2023-04-23T09:36:49;94529.03;;;22.67;43.02
6680;BME280;3376;42.664;23.346;2023-04-23T09:39:17;94523.47;;;22.64;42.43
6680;BME280;3376;42.664;23.346;2023-04-23T09:41:46;94530.34;;;22.22;45.32
6680;BME280;3376;42.664;23.346;2023-04-23T09:44:17;94522.94;;;22.18;51.51
6680;BME280;3376;42.664;23.346;2023-04-23T09:46:44;94508.63;;;22.36;48.14
6680;BME280;3376;42.664;23.346;2023-04-23T09:49:12;94521.59;;;21.94;42.41
6680;BME280;3376;42.664;23.346;2023-04-23T09:51:41;94504.09;;;21.50;43.63
6680;BME280;3376;42.664;23.346;2023-04-23T09:54:12;94511.00;;;21.18;43.17
6680;BME280;3376;42.664;23.346;2023-04-23T09:56:39;94497.78;;;20.68;44.12
6680;BME280;3376;42.664;23.346;2023-04-23T09:59:22;94498.41;;;20.59;44.57
6680;BME280;3376;42.664;23.346;2023-04-23T10:01:51;94495.94;;;20.69;43.86
6680;BME280;3376;42.664;23.346;2023-04-23T10:04:18;94502.50;;;20.83;43.87
6680;BME280;3376;42.664;23.346;2023-04-23T10:06:47;94482.22;;;20.83;43.02
6680;BME280;3376;42.664;23.346;2023-04-23T10:09:14;94493.69;;;21.60;41.20
6680;BME280;3376;42.664;23.346;2023-04-23T10:11:41;94485.16;;;21.53;40.64
6680;BME280;3376;42.664;23.346;2023-04-23T10:14:08;94457.19;;;21.90;40.22
6680;BME280;3376;42.664;23.346;2023-04-23T10:16:38;94476.75;;;22.43;40.67
6680;BME280;3376;42.664;23.346;2023-04-23T10:19:08;94481.66;;;22.87;39.48
6680;BME280;3376;42.664;23.346;2023-04-23T10:21:40;94449.34;;;22.75;39.62
6680;BME280;3376;42.664;23.346;2023-04-23T10:24:09;94472.91;;;23.13;38.49
6680;BME280;3376;42.664;23.346;2023-04-23T10:26:37;94469.66;;;22.75;38.76
6680;BME280;3376;42.664;23.346;2023-04-23T10:29:04;94459.38;;;22.25;37.11
6680;BME280;3376;42.664;23.346;2023-04-23T10:31:37;94459.38;;;21.98;38.21
6680;BME280;3376;42.664;23.346;2023-04-23T10:34:06;94436.72;;;21.59;39.32
6680;BME280;3376;42.664;23.346;2023-04-23T10:36:36;94436.44;;;21.77;40.33
6680;BME280;3376;42.664;23.346;2023-04-23T10:39:03;94453.78;;;21.95;40.93
6680;BME280;3376;42.664;23.346;2023-04-23T10:41:34;94460.28;;;21.87;38.49
6680;BME280;3376;42.664;23.346;2023-04-23T10:44:02;94431.38;;;21.97;39.41
6680;BME280;3376;42.664;23.346;2023-04-23T10:46:30;94444.16;;;22.54;37.57
6680;BME280;3376;42.664;23.346;2023-04-23T10:49:10;94422.13;;;22.48;36.98
6680;BME280;3376;42.664;23.346;2023-04-23T10:51:39;94438.03;;;22.85;35.84
6680;BME280;3376;42.664;23.346;2023-04-23T10:54:08;94437.44;;;23.09;34.96
6680;BME280;3376;42.664;23.346;2023-04-23T10:56:37;94441.59;;;23.00;34.43
6680;BME280;3376;42.664;23.346;2023-04-23T10:59:05;94413.13;;;23.12;34.29
6680;BME280;3376;42.664;23.346;2023-04-23T11:01:33;94423.97;;;23.11;35.75
6680;BME280;3376;42.664;23.346;2023-04-23T11:04:18;94412.38;;;23.12;34.90
6680;BME280;3376;42.664;23.346;2023-04-23T11:06:56;94423.53;;;23.24;33.14
6680;BME280;3376;42.664;23.346;2023-04-23T11:09:30;94415.72;;;23.39;32.52
6680;BME280;3376;42.664;23.346;2023-04-23T11:11:58;94424.25;;;23.56;31.96
6680;BME280;3376;42.664;23.346;2023-04-23T11:14:50;94416.94;;;23.73;31.48
6680;BME280;3376;42.664;23.346;2023-04-23T11:17:20;94407.94;;;23.74;31.50
6680;BME280;3376;42.664;23.346;2023-04-23T11:20:06;94410.09;;;23.82;31.24
6680;BME280;3376;42.664;23.346;2023-04-23T11:22:35;94402.41;;;23.81;31.09
6680;BME280;3376;42.664;23.346;2023-04-23T11:25:03;94394.78;;;23.89;30.67
6680;BME280;3376;42.664;23.346;2023-04-23T11:27:30;94399.00;;;23.90;30.28
6680;BME280;3376;42.664;23.346;2023-04-23T11:29:57;94397.91;;;23.86;30.91
6680;BME280;3376;42.664;23.346;2023-04-23T11:32:26;94396.41;;;24.00;30.50
6680;BME280;3376;42.664;23.346;2023-04-23T11:34:54;94394.13;;;23.67;31.37
6680;BME280;3376;42.664;23.346;2023-04-23T11:37:23;94380.34;;;23.55;30.94
6680;BME280;3376;42.664;23.346;2023-04-23T11:39:50;94396.28;;;23.18;29.20
6680;BME280;3376;42.664;23.346;2023-04-23T11:42:17;94389.34;;;22.71;30.23
6680;BME280;3376;42.664;23.346;2023-04-23T11:44:45;94390.00;;;22.25;32.25
6680;BME280;3376;42.664;23.346;2023-04-23T11:47:13;94375.22;;;21.97;34.43
6680;BME280;3376;42.664;23.346;2023-04-23T11:49:42;94365.94;;;21.94;33.62
6680;BME280;3376;42.664;23.346;2023-04-23T11:52:10;94373.09;;;22.26;32.55
6680;BME280;3376;42.664;23.346;2023-04-23T11:54:40;94376.81;;;22.56;31.71
6680;BME280;3376;42.664;23.346;2023-04-23T11:57:07;94372.53;;;22.87;30.34
6680;BME280;3376;42.664;23.346;2023-04-23T11:59:34;94365.81;;;23.11;30.09
6680;BME280;3376;42.664;23.346;2023-04-23T12:02:01;94363.56;;;23.29;28.54
6680;BME280;3376;42.664;23.346;2023-04-23T12:04:29;94350.44;;;23.50;29.39
6680;BME280;3376;42.664;23.346;2023-04-23T12:06:57;94361.59;;;23.57;29.68
6680;BME280;3376;42.664;23.346;2023-04-23T12:09:25;94350.78;;;23.68;28.77
6680;BME280;3376;42.664;23.346;2023-04-23T12:11:54;94359.28;;;23.80;28.60
6680;BME280;3376;42.664;23.346;2023-04-23T12:14:25;94366.28;;;24.16;28.31
6680;BME280;3376;42.664;23.346;2023-04-23T12:16:53;94371.06;;;24.39;27.90
6680;BME280;3376;42.664;23.346;2023-04-23T12:19:25;94365.34;;;23.76;27.99
6680;BME280;3376;42.664;23.346;2023-04-23T12:21:54;94349.22;;;23.82;28.16
6680;BME280;3376;42.664;23.346;2023-04-23T12:24:21;94354.22;;;23.69;28.36
6680;BME280;3376;42.664;23.346;2023-04-23T12:26:51;94353.69;;;23.72;26.45
6680;BME280;3376;42.664;23.346;2023-04-23T12:29:20;94348.56;;;23.45;27.26
6680;BME280;3376;42.664;23.346;2023-04-23T12:31:48;94313.53;;;23.23;28.86
6680;BME280;3376;42.664;23.346;2023-04-23T12:34:16;94347.22;;;22.91;29.79
6680;BME280;3376;42.664;23.346;2023-04-23T12:36:45;94343.34;;;22.67;29.71
6680;BME280;3376;42.664;23.346;2023-04-23T12:39:20;94340.97;;;22.65;29.23
6680;BME280;3376;42.664;23.346;2023-04-23T12:41:49;94333.00;;;22.29;30.30
6680;BME280;3376;42.664;23.346;2023-04-23T12:44:15;94329.31;;;22.30;29.25
6680;BME280;3376;42.664;23.346;2023-04-23T12:46:43;94337.59;;;22.11;30.71
6680;BME280;3376;42.664;23.346;2023-04-23T12:49:10;94330.81;;;21.67;31.01
6680;BME280;3376;42.664;23.346;2023-04-23T12:51:37;94331.72;;;21.56;30.61
6680;BME280;3376;42.664;23.346;2023-04-23T12:54:04;94338.81;;;21.29;30.55
6680;BME280;3376;42.664;23.346;2023-04-23T12:56:31;94333.66;;;21.18;30.49
6680;BME280;3376;42.664;23.346;2023-04-23T12:58:58;94318.75;;;21.07;30.11
6680;BME280;3376;42.664;23.346;2023-04-23T13:01:26;94335.94;;;21.09;30.58
6680;BME280;3376;42.664;23.346;2023-04-23T13:03:54;94333.00;;;20.89;32.34
6680;BME280;3376;42.664;23.346;2023-04-23T13:06:21;94228.38;;;20.08;32.38
6680;BME280;3376;42.664;23.346;2023-04-23T13:08:49;94340.53;;;20.64;32.33
6680;BME280;3376;42.664;23.346;2023-04-23T13:11:16;94323.56;;;20.55;31.42
6680;BME280;3376;42.664;23.346;2023-04-23T13:13:43;94328.81;;;20.71;31.33